createdAt,value
2019-01-24T00:00:31.827Z,100618.80
2019-01-24T00:03:00.926Z,100625.67
2019-01-24T00:05:30.023Z,100620.83
2019-01-24T00:07:59.160Z,100638.55
2019-01-24T00:10:28.216Z,100634.91
2019-01-24T00:12:57.273Z,100637.34
2019-01-24T00:15:26.385Z,100643.73
2019-01-24T00:17:55.448Z,100650.98
2019-01-24T00:20:24.619Z,100652.66
2019-01-24T00:22:53.696Z,100652.12
2019-01-24T00:25:22.802Z,100652.98
2019-01-24T00:27:51.994Z,100656.66
2019-01-24T00:30:21.065Z,100664.19
2019-01-24T00:32:50.139Z,100671.15
2019-01-24T00:35:19.301Z,100665.64
2019-01-24T00:37:48.370Z,100665.59
2019-01-24T00:40:18.630Z,100670.66
2019-01-24T00:42:47.804Z,100672.74
2019-01-24T00:45:16.870Z,100670.17
2019-01-24T00:47:45.975Z,100678.77
2019-01-24T00:50:15.263Z,100683.28
2019-01-24T00:52:44.329Z,100682.77
2019-01-24T00:55:14.018Z,100683.20
2019-01-24T00:57:43.109Z,100695.38
2019-01-24T01:00:20.816Z,100689.79
2019-01-24T01:02:49.890Z,100692.54
2019-01-24T01:05:18.965Z,100692.04
2019-01-24T01:07:48.069Z,100698.49
2019-01-24T01:10:17.172Z,100696.87
2019-01-24T01:12:46.205Z,100700.18
2019-01-24T01:15:16.736Z,100696.59
2019-01-24T01:17:45.858Z,100709.88
2019-01-24T01:20:17.372Z,100705.20
2019-01-24T01:22:46.552Z,100710.16
2019-01-24T01:25:15.635Z,100707.23
2019-01-24T01:27:44.780Z,100703.23
2019-01-24T01:30:16.416Z,100707.52
2019-01-24T01:32:45.464Z,100702.13
2019-01-24T01:35:14.592Z,100711.80
2019-01-24T01:37:43.675Z,100719.45
2019-01-24T01:40:13.306Z,100714.06
2019-01-24T01:42:44.918Z,100723.97
2019-01-24T01:45:19.375Z,100712.78
2019-01-24T01:47:48.448Z,100720.00
2019-01-24T01:50:19.593Z,100723.54
2019-01-24T01:52:48.833Z,100726.27
2019-01-24T01:55:17.895Z,100730.21
2019-01-24T01:57:46.956Z,100722.55
2019-01-24T02:00:21.330Z,100726.14
2019-01-24T02:02:50.447Z,100738.08
2019-01-24T02:05:19.521Z,100742.76
2019-01-24T02:07:48.642Z,100739.95
2019-01-24T02:10:19.557Z,100741.08
2019-01-24T02:12:48.655Z,100745.19
2019-01-24T02:15:17.717Z,100747.52
2019-01-24T02:17:46.791Z,100745.05
2019-01-24T02:20:18.186Z,100747.89
2019-01-24T02:22:47.264Z,100754.83
2019-01-24T02:25:16.296Z,100750.95
2019-01-24T02:27:45.340Z,100751.41
2019-01-24T02:30:17.697Z,100749.84
2019-01-24T02:32:46.786Z,100751.30
2019-01-24T02:35:15.889Z,100758.80
2019-01-24T02:37:44.995Z,100754.70
2019-01-24T02:40:14.076Z,100750.86
2019-01-24T02:42:43.196Z,100754.42
2019-01-24T02:45:14.109Z,100760.09
2019-01-24T02:47:43.239Z,100759.59
2019-01-24T02:50:14.529Z,100756.78
2019-01-24T02:52:43.594Z,100754.83
2019-01-24T02:55:14.367Z,100757.14
2019-01-24T02:57:43.447Z,100763.64
2019-01-24T03:00:15.031Z,100761.05
2019-01-24T03:02:44.209Z,100767.59
2019-01-24T03:05:14.717Z,100767.48
2019-01-24T03:07:43.807Z,100767.54
2019-01-24T03:10:13.367Z,100761.67
2019-01-24T03:12:42.438Z,100758.77
2019-01-24T03:15:13.287Z,100765.92
2019-01-24T03:17:42.348Z,100763.52
2019-01-24T03:20:11.914Z,100763.95
2019-01-24T03:22:40.991Z,100765.75
2019-01-24T03:25:10.148Z,100767.99
2019-01-24T03:27:39.220Z,100775.55
2019-01-24T03:30:11.262Z,100761.67
2019-01-24T03:32:40.326Z,100765.36
2019-01-24T03:35:11.762Z,100764.19
2019-01-24T03:37:40.930Z,100772.19
2019-01-24T03:40:11.325Z,100779.52
2019-01-24T03:42:40.428Z,100778.36
2019-01-24T03:45:11.431Z,100781.55
2019-01-24T03:47:40.540Z,100772.65
2019-01-24T03:50:11.747Z,100780.47
2019-01-24T03:52:40.826Z,100785.89
2019-01-24T03:55:10.758Z,100782.61
2019-01-24T03:57:39.821Z,100791.52
2019-01-24T04:00:12.471Z,100786.52
2019-01-24T04:02:41.523Z,100794.28
2019-01-24T04:05:12.050Z,100790.20
2019-01-24T04:07:41.328Z,100792.34
2019-01-24T04:10:15.694Z,100795.88
2019-01-24T04:12:44.831Z,100796.37
2019-01-24T04:15:16.190Z,100793.84
2019-01-24T04:17:45.295Z,100795.31
2019-01-24T04:20:14.391Z,100793.07
2019-01-24T04:22:43.489Z,100792.39
2019-01-24T04:25:12.553Z,100800.56
2019-01-24T04:27:41.599Z,100795.88
2019-01-24T04:30:14.101Z,100798.78
2019-01-24T04:32:43.151Z,100808.25
2019-01-24T04:35:19.447Z,100809.30
2019-01-24T04:37:43.042Z,100812.78
2019-01-24T04:40:14.297Z,100816.12
2019-01-24T04:42:43.323Z,100824.92
2019-01-24T04:45:13.573Z,100815.52
2019-01-24T04:47:42.615Z,100809.36
2019-01-24T04:50:13.558Z,100815.45
2019-01-24T04:52:42.608Z,100817.26
2019-01-24T04:55:13.007Z,100823.15
2019-01-24T04:57:42.026Z,100833.11
2019-01-24T05:00:17.119Z,100831.95
2019-01-24T05:02:46.276Z,100829.42
2019-01-24T05:05:15.346Z,100828.05
2019-01-24T05:07:44.538Z,100828.33
2019-01-24T05:10:13.712Z,100841.30
2019-01-24T05:12:42.804Z,100837.23
2019-01-24T05:15:11.907Z,100842.98
2019-01-24T05:17:40.947Z,100841.30
2019-01-24T05:20:10.746Z,100845.67
2019-01-24T05:22:39.916Z,100847.47
2019-01-24T05:25:10.887Z,100853.21
2019-01-24T05:27:40.062Z,100856.74
2019-01-24T05:30:12.961Z,100845.02
2019-01-24T05:32:42.051Z,100860.80
2019-01-24T05:35:11.122Z,100859.55
2019-01-24T05:37:40.216Z,100860.93
2019-01-24T05:40:09.306Z,100860.95
2019-01-24T05:42:38.397Z,100864.69
2019-01-24T05:45:07.823Z,100864.59
2019-01-24T05:47:36.972Z,100861.97
2019-01-24T05:50:06.925Z,100864.80
2019-01-24T05:52:36.079Z,100856.08
2019-01-24T05:55:05.855Z,100859.84
2019-01-24T05:57:34.928Z,100859.31
2019-01-24T06:00:04.574Z,100856.80
2019-01-24T06:02:33.661Z,100852.02
2019-01-24T06:05:02.789Z,100861.89
2019-01-24T06:07:31.924Z,100862.12
2019-01-24T06:10:01.023Z,100863.80
2019-01-24T06:12:31.385Z,100862.71
2019-01-24T06:15:00.510Z,100859.94
2019-01-24T06:17:29.681Z,100858.98
2019-01-24T06:19:58.806Z,100854.50
2019-01-24T06:22:27.971Z,100851.27
2019-01-24T06:24:57.064Z,100859.97
2019-01-24T06:27:26.205Z,100868.09
2019-01-24T06:29:55.441Z,100863.80
2019-01-24T06:32:24.634Z,100871.75
2019-01-24T06:34:53.795Z,100873.45
2019-01-24T06:37:22.887Z,100873.63
2019-01-24T06:39:52.009Z,100878.03
2019-01-24T06:42:21.080Z,100891.92
2019-01-24T06:44:50.179Z,100891.28
2019-01-24T06:47:23.996Z,100900.56
2019-01-24T06:49:59.573Z,100908.78
2019-01-24T06:52:28.781Z,100891.95
2019-01-24T06:54:57.965Z,100909.89
2019-01-24T06:57:27.176Z,100906.02
2019-01-24T06:59:58.462Z,100915.81
2019-01-24T07:02:38.208Z,100925.02
2019-01-24T07:05:18.051Z,100926.62
2019-01-24T07:07:47.158Z,100934.31
2019-01-24T07:10:17.930Z,100936.42
2019-01-24T07:12:47.014Z,100938.51
2019-01-24T07:15:20.842Z,100951.21
2019-01-24T07:17:49.962Z,100952.65
2019-01-24T07:20:19.116Z,100944.05
2019-01-24T07:22:48.203Z,100951.13
2019-01-24T07:25:27.373Z,100946.30
2019-01-24T07:27:56.468Z,100963.59
2019-01-24T07:30:25.676Z,100956.77
2019-01-24T07:32:54.890Z,100959.48
2019-01-24T07:35:24.003Z,100972.91
2019-01-24T07:37:53.332Z,100977.48
2019-01-24T07:40:22.399Z,100977.97
2019-01-24T07:42:51.513Z,100983.03
2019-01-24T07:45:26.350Z,100992.06
2019-01-24T07:47:55.398Z,100993.80
2019-01-24T07:50:24.571Z,101004.52
2019-01-24T07:52:53.637Z,101001.30
2019-01-24T07:55:22.806Z,101018.81
2019-01-24T07:57:52.026Z,101019.25
2019-01-24T08:00:25.338Z,101016.08
2019-01-24T08:02:54.502Z,101024.86
2019-01-24T08:05:23.953Z,101021.96
2019-01-24T08:07:53.112Z,101026.46
2019-01-24T08:10:22.335Z,101026.30
2019-01-24T08:12:51.481Z,101029.45
2019-01-24T08:15:21.162Z,101029.95
2019-01-24T08:17:50.283Z,101037.08
2019-01-24T08:20:24.308Z,101035.64
2019-01-24T08:22:53.458Z,101038.06
2019-01-24T08:25:22.518Z,101048.75
2019-01-24T08:27:51.646Z,101047.54
2019-01-24T08:30:25.745Z,101052.84
2019-01-24T08:32:54.941Z,101044.89
2019-01-24T08:35:24.024Z,101050.44
2019-01-24T08:37:53.130Z,101046.42
2019-01-24T08:40:22.256Z,101052.20
2019-01-24T08:42:51.349Z,101043.50
2019-01-24T08:45:20.387Z,101037.57
2019-01-24T08:47:49.552Z,101043.00
2019-01-24T08:50:20.139Z,101048.01
2019-01-24T08:52:49.176Z,101036.69
2019-01-24T08:55:20.942Z,101037.08
2019-01-24T08:57:50.048Z,101034.37
2019-01-24T09:00:19.777Z,101033.39
2019-01-24T09:02:48.977Z,101040.94
2019-01-24T09:05:18.134Z,101031.61
2019-01-24T09:07:47.277Z,101033.06
2019-01-24T09:10:37.198Z,101037.90
2019-01-24T09:13:07.308Z,101038.71
2019-01-24T09:15:36.662Z,101043.99
2019-01-24T09:18:06.318Z,101036.78
2019-01-24T09:20:35.479Z,101028.64
2019-01-24T09:23:05.134Z,101026.63
2019-01-24T09:25:34.294Z,101018.41
2019-01-24T09:28:03.439Z,101020.48
2019-01-24T09:30:32.557Z,101028.34
2019-01-24T09:33:01.677Z,101026.15
2019-01-24T09:35:31.068Z,101020.14
2019-01-24T09:38:00.195Z,101027.84
2019-01-24T09:40:29.409Z,101023.29
2019-01-24T09:42:58.591Z,101034.22
2019-01-24T09:45:29.189Z,101029.29
2019-01-24T09:48:00.200Z,101044.31
2019-01-24T09:50:29.418Z,101047.31
2019-01-24T09:53:02.928Z,101040.25
2019-01-24T09:55:31.999Z,101041.73
2019-01-24T09:58:01.149Z,101050.05
2019-01-24T10:00:35.314Z,101046.11
2019-01-24T10:03:04.980Z,101053.78
2019-01-24T10:05:34.099Z,101049.91
2019-01-24T10:08:03.155Z,101057.34
2019-01-24T10:10:32.500Z,101068.27
2019-01-24T10:13:01.588Z,101063.60
2019-01-24T10:15:30.728Z,101065.55
2019-01-24T10:17:59.866Z,101063.63
2019-01-24T10:20:29.241Z,101064.46
2019-01-24T10:22:58.384Z,101077.84
2019-01-24T10:25:35.942Z,101068.02
2019-01-24T10:28:05.161Z,101078.73
2019-01-24T10:30:34.226Z,101072.93
2019-01-24T10:33:03.348Z,101073.10
2019-01-24T10:35:32.421Z,101075.48
2019-01-24T10:38:01.556Z,101065.55
2019-01-24T10:40:31.703Z,101071.10
2019-01-24T10:43:00.821Z,101064.36
2019-01-24T10:45:29.923Z,101072.81
2019-01-24T10:47:59.135Z,101073.35
2019-01-24T10:50:28.415Z,101080.55
2019-01-24T10:52:57.605Z,101085.61
2019-01-24T10:55:28.037Z,101078.06
2019-01-24T10:58:02.052Z,101082.38
2019-01-24T11:00:39.145Z,101077.80
2019-01-24T11:03:10.487Z,101089.69
2019-01-24T11:05:39.591Z,101082.89
2019-01-24T11:08:08.752Z,101073.68
2019-01-24T11:10:37.867Z,101085.81
2019-01-24T11:13:06.986Z,101079.34
2019-01-24T11:15:36.148Z,101079.39
2019-01-24T11:18:07.559Z,101079.56
2019-01-24T11:20:36.737Z,101082.47
2019-01-24T11:23:06.106Z,101097.06
2019-01-24T11:25:35.315Z,101093.51
2019-01-24T11:28:04.455Z,101090.86
2019-01-24T11:30:33.635Z,101093.25
2019-01-24T11:33:02.661Z,101096.11
2019-01-24T11:35:35.815Z,101089.21
2019-01-24T11:38:05.232Z,101087.06
2019-01-24T11:40:34.610Z,101097.39
2019-01-24T11:43:03.720Z,101087.00
2019-01-24T11:45:35.779Z,101096.97
2019-01-24T11:48:04.982Z,101093.38
2019-01-24T11:50:37.485Z,101084.50
2019-01-24T11:53:06.671Z,101098.16
2019-01-24T11:55:35.896Z,101093.70
2019-01-24T11:58:05.652Z,101089.69
2019-01-24T12:00:57.371Z,101083.89
2019-01-24T12:03:26.503Z,101089.53
2019-01-24T12:05:55.633Z,101090.06
2019-01-24T12:08:24.846Z,101076.56
2019-01-24T12:10:53.979Z,101081.88
2019-01-24T12:13:23.144Z,101085.59
2019-01-24T12:15:52.261Z,101083.16
2019-01-24T12:18:21.342Z,101089.00
2019-01-24T12:20:50.521Z,101087.16
2019-01-24T12:23:19.640Z,101084.35
2019-01-24T12:25:50.122Z,101086.56
2019-01-24T12:28:19.286Z,101076.02
2019-01-24T12:30:48.394Z,101074.27
2019-01-24T12:33:17.485Z,101077.64
2019-01-24T12:35:49.440Z,101080.74
2019-01-24T12:38:18.632Z,101074.30
2019-01-24T12:40:47.688Z,101080.59
2019-01-24T12:43:16.787Z,101089.45
2019-01-24T12:45:45.873Z,101085.23
2019-01-24T12:48:15.002Z,101085.81
2019-01-24T12:50:44.070Z,101085.87
2019-01-24T12:53:13.179Z,101099.03
2019-01-24T12:55:42.246Z,101084.13
2019-01-24T12:58:11.369Z,101088.84
2019-01-24T13:00:40.781Z,101088.84
2019-01-24T13:03:09.950Z,101089.54
2019-01-24T13:05:39.070Z,101074.19
2019-01-24T13:08:08.411Z,101067.09
2019-01-24T13:10:37.550Z,101067.09
2019-01-24T13:13:06.950Z,101062.31
2019-01-24T13:15:36.060Z,101064.89
2019-01-24T13:18:05.353Z,101068.83
2019-01-24T13:20:34.395Z,101067.20
2019-01-24T13:23:03.503Z,101082.68
2019-01-24T13:25:34.611Z,101091.00
2019-01-24T13:28:03.875Z,101094.07
2019-01-24T13:30:34.991Z,101088.13
2019-01-24T13:33:05.090Z,101088.22
2019-01-24T13:35:35.407Z,101105.31
2019-01-24T13:38:04.690Z,101105.80
2019-01-24T13:40:33.786Z,101110.30
2019-01-24T13:43:05.350Z,101113.49
2019-01-24T13:45:39.479Z,101108.45
2019-01-24T13:48:08.596Z,101102.36
2019-01-24T13:50:40.764Z,101121.87
2019-01-24T13:53:10.317Z,101114.53
2019-01-24T13:55:39.646Z,101114.04
2019-01-24T13:58:09.085Z,101108.05
2019-01-24T14:00:40.171Z,101110.81
2019-01-24T14:03:31.217Z,101111.16
2019-01-24T14:06:00.419Z,101105.53
2019-01-24T14:08:29.508Z,101105.53
2019-01-24T14:10:58.659Z,101104.08
2019-01-24T14:13:27.815Z,101102.53
2019-01-24T14:15:59.561Z,101111.26
2019-01-24T14:18:28.631Z,101101.58
2019-01-24T14:20:57.730Z,101110.14
2019-01-24T14:23:26.860Z,101113.94
2019-01-24T14:25:55.918Z,101106.91
2019-01-24T14:28:25.039Z,101104.87
2019-01-24T14:30:54.219Z,101108.69
2019-01-24T14:47:32.136Z,101120.83
2019-01-24T14:50:01.270Z,101126.58
2019-01-24T14:52:30.426Z,101125.18
2019-01-24T14:54:59.531Z,101122.47
2019-01-24T14:57:28.758Z,101129.46
2019-01-24T14:59:57.911Z,101123.34
2019-01-24T15:02:27.146Z,101138.94
2019-01-24T15:04:56.277Z,101136.20
2019-01-24T15:07:27.726Z,101138.23
2019-01-24T15:09:56.823Z,101147.80
2019-01-24T15:12:26.059Z,101152.47
2019-01-24T15:14:55.307Z,101157.77
2019-01-24T15:17:24.405Z,101159.23
2019-01-24T15:19:53.569Z,101159.23
2019-01-24T15:22:22.710Z,101161.17
2019-01-24T15:24:51.857Z,101164.06
2019-01-24T15:27:20.971Z,101177.28
2019-01-24T15:29:50.065Z,101172.69
2019-01-24T15:32:19.199Z,101167.99
2019-01-24T15:34:48.308Z,101165.91
2019-01-24T15:37:17.398Z,101174.45
2019-01-24T15:39:46.588Z,101174.54
2019-01-24T15:42:15.725Z,101167.06
2019-01-24T15:44:44.818Z,101174.68
2019-01-24T15:47:13.920Z,101173.82
2019-01-24T15:49:45.347Z,101177.28
2019-01-24T15:52:14.031Z,101180.18
2019-01-24T15:54:58.207Z,101182.36
2019-01-24T15:57:32.031Z,101184.84
2019-01-24T16:00:00.748Z,101185.50
2019-01-24T16:02:29.827Z,101187.19
2019-01-24T16:05:00.258Z,101190.63
2019-01-24T16:07:29.475Z,101191.13
2019-01-24T16:09:58.761Z,101184.52
2019-01-24T16:12:27.821Z,101185.48
2019-01-24T16:14:56.920Z,101184.16
2019-01-24T16:17:26.002Z,101191.17
2019-01-24T16:19:55.224Z,101203.27
2019-01-24T16:22:24.323Z,101205.30
2019-01-24T16:24:53.579Z,101209.55
2019-01-24T16:27:22.725Z,101214.60
2019-01-24T16:29:51.883Z,101215.95
2019-01-24T16:32:21.164Z,101213.74
2019-01-24T16:34:51.634Z,101217.68
2019-01-24T16:37:24.709Z,101222.91
2019-01-24T16:39:53.881Z,101219.79
2019-01-24T16:42:25.421Z,101219.11
2019-01-24T16:44:54.508Z,101226.87
2019-01-24T16:47:23.798Z,101226.84
2019-01-24T16:49:52.988Z,101221.65
2019-01-24T16:52:22.213Z,101212.78
2019-01-24T16:54:51.401Z,101228.95
2019-01-24T16:57:20.646Z,101230.89
2019-01-24T16:59:49.819Z,101224.05
2019-01-24T17:02:19.207Z,101224.12
2019-01-24T17:04:48.406Z,101219.02
2019-01-24T17:07:17.511Z,101220.58
2019-01-24T17:09:46.674Z,101228.03
2019-01-24T17:12:15.820Z,101228.75
2019-01-24T17:14:44.919Z,101230.63
2019-01-24T17:17:14.087Z,101237.77
2019-01-24T17:19:43.210Z,101237.13
2019-01-24T17:22:12.344Z,101238.91
2019-01-24T17:24:41.538Z,101245.51
2019-01-24T17:27:10.673Z,101246.72
2019-01-24T17:29:39.842Z,101240.86
2019-01-24T17:32:09.166Z,101243.24
2019-01-24T17:34:38.265Z,101243.80
2019-01-24T17:37:07.477Z,101243.48
2019-01-24T17:39:36.565Z,101243.75
2019-01-24T17:42:05.759Z,101248.41
2019-01-24T17:44:35.076Z,101256.62
2019-01-24T17:47:31.274Z,101257.46
2019-01-24T17:50:00.393Z,101261.79
2019-01-24T17:52:32.356Z,101256.88
2019-01-24T17:55:01.449Z,101256.96
2019-01-24T17:57:30.561Z,101259.94
2019-01-24T17:59:59.738Z,101259.94
2019-01-24T18:02:35.049Z,101254.57
2019-01-24T18:05:04.413Z,101257.00
2019-01-24T18:07:33.577Z,101269.12
2019-01-24T18:10:33.188Z,101265.52
2019-01-24T18:13:02.380Z,101273.64
2019-01-24T18:15:35.127Z,101279.38
2019-01-24T18:18:06.143Z,101280.98
2019-01-24T18:20:35.277Z,101288.20
2019-01-24T18:23:07.037Z,101293.68
2019-01-24T18:25:36.304Z,101299.47
2019-01-24T18:28:32.448Z,101297.97
2019-01-24T18:34:33.876Z,101301.46
2019-01-24T18:37:33.573Z,101303.50
2019-01-24T18:40:33.114Z,101298.88
2019-01-24T18:43:32.137Z,101312.35
2019-01-24T18:46:31.911Z,101309.19
2019-01-24T18:49:31.340Z,101315.88
2019-01-24T18:52:33.606Z,101324.22
2019-01-24T18:55:32.983Z,101326.27
2019-01-24T18:58:32.354Z,101334.58
2019-01-24T19:01:31.821Z,101330.27
2019-01-24T19:07:52.833Z,101331.63
2019-01-24T19:10:22.418Z,101334.19
2019-01-24T19:12:51.768Z,101333.09
2019-01-24T19:15:20.999Z,101334.45
2019-01-24T19:17:50.287Z,101332.78
2019-01-24T19:20:20.370Z,101332.06
2019-01-24T19:22:50.010Z,101332.89
2019-01-24T19:25:19.821Z,101340.77
2019-01-24T19:27:48.983Z,101338.50
2019-01-24T19:30:21.243Z,101333.30
2019-01-24T19:32:50.465Z,101340.04
2019-01-24T19:35:19.697Z,101343.59
2019-01-24T19:37:48.962Z,101347.66
2019-01-24T19:40:19.537Z,101346.17
2019-01-24T19:42:48.744Z,101344.94
2019-01-24T19:45:19.640Z,101339.98
2019-01-24T19:47:49.241Z,101342.61
2019-01-24T19:50:20.299Z,101353.34
2019-01-24T19:52:49.485Z,101348.27
2019-01-24T19:55:18.691Z,101345.98
2019-01-24T19:57:47.959Z,101342.31
2019-01-24T20:00:21.891Z,101345.83
2019-01-24T20:02:51.076Z,101353.57
2019-01-24T20:05:20.265Z,101349.23
2019-01-24T20:07:49.380Z,101346.66
2019-01-24T20:10:20.275Z,101345.84
2019-01-24T20:12:49.474Z,101347.82
2019-01-24T20:15:23.830Z,101341.23
2019-01-24T20:17:53.901Z,101346.33
2019-01-24T20:20:23.117Z,101346.55
2019-01-24T20:22:52.644Z,101357.44
2019-01-24T20:25:24.633Z,101351.53
2019-01-24T20:27:53.916Z,101349.28
2019-01-24T20:30:24.904Z,101349.63
2019-01-24T20:32:54.104Z,101347.92
2019-01-24T20:35:37.966Z,101353.38
2019-01-24T20:38:07.553Z,101348.27
2019-01-24T20:40:36.818Z,101354.05
2019-01-24T20:43:05.982Z,101348.60
2019-01-24T20:45:35.114Z,101353.00
2019-01-24T20:48:04.343Z,101350.34
2019-01-24T20:50:33.529Z,101351.76
2019-01-24T20:53:02.716Z,101361.06
2019-01-24T20:55:31.854Z,101353.08
2019-01-24T20:58:00.992Z,101353.95
2019-01-24T21:00:30.162Z,101363.13
2019-01-24T21:02:59.378Z,101363.61
2019-01-24T21:05:28.651Z,101366.51
2019-01-24T21:07:57.862Z,101360.41
2019-01-24T21:10:27.072Z,101361.03
2019-01-24T21:12:56.228Z,101359.48
2019-01-24T21:15:25.344Z,101355.42
2019-01-24T21:17:54.460Z,101352.48
2019-01-24T21:20:25.314Z,101362.80
2019-01-24T21:22:54.475Z,101371.44
2019-01-24T21:25:23.716Z,101373.30
2019-01-24T21:27:52.882Z,101373.94
2019-01-24T21:30:24.485Z,101361.58
2019-01-24T21:32:53.591Z,101363.56
2019-01-24T21:35:22.663Z,101366.62
2019-01-24T21:37:51.751Z,101374.14
2019-01-24T21:40:21.192Z,101377.36
2019-01-24T21:42:50.375Z,101378.27
2019-01-24T21:45:22.040Z,101369.73
2019-01-24T21:47:51.091Z,101370.20
2019-01-24T21:50:21.218Z,101379.03
2019-01-24T21:52:50.355Z,101369.63
2019-01-24T21:55:20.351Z,101374.91
2019-01-24T21:57:49.460Z,101375.63
2019-01-24T22:00:20.567Z,101375.45
2019-01-24T22:02:49.746Z,101374.72
2019-01-24T22:05:19.271Z,101373.38
2019-01-24T22:07:48.457Z,101368.91
2019-01-24T22:10:20.458Z,101370.26
2019-01-24T22:12:49.593Z,101381.50
2019-01-24T22:15:19.891Z,101377.99
2019-01-24T22:17:48.952Z,101384.59
2019-01-24T22:20:18.148Z,101379.20
2019-01-24T22:22:47.275Z,101385.52
2019-01-24T22:25:18.353Z,101386.63
2019-01-24T22:27:47.563Z,101389.08
2019-01-24T22:30:30.609Z,101400.23
2019-01-24T22:32:58.804Z,101399.23
2019-01-24T22:35:27.849Z,101394.62
2019-01-24T22:37:56.972Z,101397.68
2019-01-24T22:40:26.110Z,101394.10
2019-01-24T22:42:55.163Z,101398.36
2019-01-24T22:45:24.806Z,101407.61
2019-01-24T22:47:53.894Z,101410.63
2019-01-24T22:50:22.930Z,101404.19
2019-01-24T22:52:52.028Z,101400.05
2019-01-24T22:55:21.196Z,101405.41
2019-01-24T22:57:50.273Z,101408.33
2019-01-24T23:00:46.456Z,101405.94
2019-01-24T23:03:17.476Z,101406.23
2019-01-24T23:05:46.550Z,101421.81
2019-01-24T23:08:15.640Z,101424.39
2019-01-24T23:10:44.765Z,101421.67
2019-01-24T23:13:13.828Z,101412.06
2019-01-24T23:15:42.877Z,101412.48
2019-01-24T23:18:11.944Z,101414.30
2019-01-24T23:20:40.983Z,101419.72
2019-01-24T23:23:10.062Z,101418.50
2019-01-24T23:25:39.061Z,101418.75
2019-01-24T23:28:08.171Z,101418.98
2019-01-24T23:30:37.212Z,101427.09
2019-01-24T23:33:06.263Z,101410.28
2019-01-24T23:35:35.320Z,101410.93
2019-01-24T23:38:04.356Z,101420.02
2019-01-24T23:40:33.406Z,101424.95
2019-01-24T23:43:02.430Z,101421.28
2019-01-24T23:45:31.453Z,101420.47
2019-01-24T23:48:00.513Z,101425.11
2019-01-24T23:50:29.561Z,101410.63
2019-01-24T23:52:58.589Z,101420.30
2019-01-24T23:55:27.630Z,101416.45
2019-01-24T23:57:56.672Z,101411.91
